sensor_id;sensor_type;location;lat;lon;timestamp;P1;durP1;ratioP1;P2;durP2;ratioP2
41739;SDS011;27422;52.444;13.300;2022-07-23T00:01:32;6.10;;;3.55;;
41739;SDS011;27422;52.444;13.300;2022-07-23T00:03:57;5.82;;;3.40;;
41739;SDS011;27422;52.444;13.300;2022-07-23T00:06:23;6.55;;;3.72;;
41739;SDS011;27422;52.444;13.300;2022-07-23T00:08:49;6.50;;;3.50;;
41739;SDS011;27422;52.444;13.300;2022-07-23T00:11:15;7.13;;;3.40;;
41739;SDS011;27422;52.444;13.300;2022-07-23T00:13:43;5.15;;;3.30;;
41739;SDS011;27422;52.444;13.300;2022-07-23T00:16:09;5.57;;;3.35;;
41739;SDS011;27422;52.444;13.300;2022-07-23T00:18:34;5.07;;;3.20;;
41739;SDS011;27422;52.444;13.300;2022-07-23T00:21:00;5.40;;;3.40;;
41739;SDS011;27422;52.444;13.300;2022-07-23T00:23:25;7.20;;;3.28;;
41739;SDS011;27422;52.444;13.300;2022-07-23T00:25:52;7.05;;;3.75;;
41739;SDS011;27422;52.444;13.300;2022-07-23T00:28:17;5.60;;;3.17;;
41739;SDS011;27422;52.444;13.300;2022-07-23T00:30:44;6.65;;;3.70;;
41739;SDS011;27422;52.444;13.300;2022-07-23T00:33:09;6.90;;;4.03;;
41739;SDS011;27422;52.444;13.300;2022-07-23T00:35:36;6.78;;;3.50;;
41739;SDS011;27422;52.444;13.300;2022-07-23T00:38:03;5.78;;;3.30;;
41739;SDS011;27422;52.444;13.300;2022-07-23T00:40:30;5.95;;;3.53;;
41739;SDS011;27422;52.444;13.300;2022-07-23T00:42:55;4.70;;;3.22;;
41739;SDS011;27422;52.444;13.300;2022-07-23T00:45:21;6.65;;;3.85;;
41739;SDS011;27422;52.444;13.300;2022-07-23T00:47:46;6.13;;;3.50;;
41739;SDS011;27422;52.444;13.300;2022-07-23T00:50:12;6.20;;;3.75;;
41739;SDS011;27422;52.444;13.300;2022-07-23T00:52:38;7.25;;;3.80;;
41739;SDS011;27422;52.444;13.300;2022-07-23T00:55:04;6.13;;;3.63;;
41739;SDS011;27422;52.444;13.300;2022-07-23T00:57:30;6.28;;;3.35;;
41739;SDS011;27422;52.444;13.300;2022-07-23T00:59:59;5.57;;;3.25;;
41739;SDS011;27422;52.444;13.300;2022-07-23T01:02:25;5.50;;;3.40;;
41739;SDS011;27422;52.444;13.300;2022-07-23T01:04:51;4.75;;;3.33;;
41739;SDS011;27422;52.444;13.300;2022-07-23T01:07:17;6.38;;;3.30;;
41739;SDS011;27422;52.444;13.300;2022-07-23T01:09:43;5.28;;;3.40;;
41739;SDS011;27422;52.444;13.300;2022-07-23T01:12:09;5.38;;;3.50;;
41739;SDS011;27422;52.444;13.300;2022-07-23T01:14:34;5.80;;;3.22;;
41739;SDS011;27422;52.444;13.300;2022-07-23T01:17:00;6.32;;;3.45;;
41739;SDS011;27422;52.444;13.300;2022-07-23T01:19:25;5.97;;;3.80;;
41739;SDS011;27422;52.444;13.300;2022-07-23T01:21:53;7.07;;;4.05;;
41739;SDS011;27422;52.444;13.300;2022-07-23T01:24:20;6.35;;;3.90;;
41739;SDS011;27422;52.444;13.300;2022-07-23T01:26:46;6.82;;;3.33;;
41739;SDS011;27422;52.444;13.300;2022-07-23T01:29:12;7.95;;;3.92;;
41739;SDS011;27422;52.444;13.300;2022-07-23T01:31:38;6.35;;;3.78;;
41739;SDS011;27422;52.444;13.300;2022-07-23T01:34:04;5.32;;;4.05;;
41739;SDS011;27422;52.444;13.300;2022-07-23T01:36:30;6.18;;;3.70;;
41739;SDS011;27422;52.444;13.300;2022-07-23T01:38:55;6.47;;;3.75;;
41739;SDS011;27422;52.444;13.300;2022-07-23T01:41:21;6.93;;;3.83;;
41739;SDS011;27422;52.444;13.300;2022-07-23T01:43:49;5.55;;;3.30;;
41739;SDS011;27422;52.444;13.300;2022-07-23T01:46:14;5.72;;;3.53;;
41739;SDS011;27422;52.444;13.300;2022-07-23T01:48:40;6.07;;;3.92;;
41739;SDS011;27422;52.444;13.300;2022-07-23T01:51:05;5.35;;;3.45;;
41739;SDS011;27422;52.444;13.300;2022-07-23T01:53:31;6.78;;;3.60;;
41739;SDS011;27422;52.444;13.300;2022-07-23T01:55:59;5.70;;;3.53;;
41739;SDS011;27422;52.444;13.300;2022-07-23T01:58:24;6.75;;;3.72;;
41739;SDS011;27422;52.444;13.300;2022-07-23T02:00:50;6.25;;;3.63;;
41739;SDS011;27422;52.444;13.300;2022-07-23T02:03:16;7.78;;;3.80;;
41739;SDS011;27422;52.444;13.300;2022-07-23T02:05:41;7.45;;;4.30;;
41739;SDS011;27422;52.444;13.300;2022-07-23T02:08:09;6.43;;;4.15;;
41739;SDS011;27422;52.444;13.300;2022-07-23T02:10:34;5.82;;;4.03;;
41739;SDS011;27422;52.444;13.300;2022-07-23T02:13:00;6.13;;;4.40;;
41739;SDS011;27422;52.444;13.300;2022-07-23T02:15:25;5.65;;;3.80;;
41739;SDS011;27422;52.444;13.300;2022-07-23T02:17:51;6.10;;;3.50;;
41739;SDS011;27422;52.444;13.300;2022-07-23T02:20:16;6.35;;;3.95;;
41739;SDS011;27422;52.444;13.300;2022-07-23T02:22:41;6.38;;;3.92;;
41739;SDS011;27422;52.444;13.300;2022-07-23T02:25:10;5.45;;;3.55;;
41739;SDS011;27422;52.444;13.300;2022-07-23T02:27:35;6.82;;;3.75;;
41739;SDS011;27422;52.444;13.300;2022-07-23T02:30:01;7.22;;;3.88;;
41739;SDS011;27422;52.444;13.300;2022-07-23T02:32:27;4.95;;;3.47;;
41739;SDS011;27422;52.444;13.300;2022-07-23T02:34:53;5.78;;;4.07;;
41739;SDS011;27422;52.444;13.300;2022-07-23T02:37:18;7.38;;;3.97;;
41739;SDS011;27422;52.444;13.300;2022-07-23T02:39:44;7.32;;;4.13;;
41739;SDS011;27422;52.444;13.300;2022-07-23T02:42:09;8.05;;;4.53;;
41739;SDS011;27422;52.444;13.300;2022-07-23T02:44:34;5.80;;;3.47;;
41739;SDS011;27422;52.444;13.300;2022-07-23T02:47:00;7.20;;;3.70;;
41739;SDS011;27422;52.444;13.300;2022-07-23T02:49:25;6.55;;;4.13;;
41739;SDS011;27422;52.444;13.300;2022-07-23T02:51:51;6.05;;;3.78;;
41739;SDS011;27422;52.444;13.300;2022-07-23T02:54:16;7.32;;;4.00;;
41739;SDS011;27422;52.444;13.300;2022-07-23T02:56:41;6.55;;;3.83;;
41739;SDS011;27422;52.444;13.300;2022-07-23T02:59:07;8.27;;;3.80;;
41739;SDS011;27422;52.444;13.300;2022-07-23T03:01:32;6.50;;;3.78;;
41739;SDS011;27422;52.444;13.300;2022-07-23T03:03:58;6.72;;;4.18;;
41739;SDS011;27422;52.444;13.300;2022-07-23T03:06:23;5.70;;;3.78;;
41739;SDS011;27422;52.444;13.300;2022-07-23T03:08:48;6.95;;;3.88;;
41739;SDS011;27422;52.444;13.300;2022-07-23T03:11:14;6.80;;;3.60;;
41739;SDS011;27422;52.444;13.300;2022-07-23T03:13:39;6.75;;;3.60;;
41739;SDS011;27422;52.444;13.300;2022-07-23T03:16:05;5.63;;;3.53;;
41739;SDS011;27422;52.444;13.300;2022-07-23T03:18:31;6.78;;;3.80;;
41739;SDS011;27422;52.444;13.300;2022-07-23T03:20:56;5.95;;;3.60;;
41739;SDS011;27422;52.444;13.300;2022-07-23T03:23:22;7.35;;;3.78;;
41739;SDS011;27422;52.444;13.300;2022-07-23T03:25:47;8.00;;;4.00;;
41739;SDS011;27422;52.444;13.300;2022-07-23T03:28:13;5.70;;;3.50;;
41739;SDS011;27422;52.444;13.300;2022-07-23T03:30:46;5.78;;;3.38;;
41739;SDS011;27422;52.444;13.300;2022-07-23T03:33:12;7.03;;;3.88;;
41739;SDS011;27422;52.444;13.300;2022-07-23T03:35:38;8.55;;;3.90;;
41739;SDS011;27422;52.444;13.300;2022-07-23T03:38:03;6.22;;;3.40;;
41739;SDS011;27422;52.444;13.300;2022-07-23T03:40:29;5.65;;;3.13;;
41739;SDS011;27422;52.444;13.300;2022-07-23T03:42:54;5.53;;;3.28;;
41739;SDS011;27422;52.444;13.300;2022-07-23T03:45:19;7.28;;;3.40;;
41739;SDS011;27422;52.444;13.300;2022-07-23T03:50:12;9.75;;;3.55;;
41739;SDS011;27422;52.444;13.300;2022-07-23T03:52:38;6.10;;;2.83;;
41739;SDS011;27422;52.444;13.300;2022-07-23T03:55:03;6.05;;;2.78;;
41739;SDS011;27422;52.444;13.300;2022-07-23T03:57:29;5.30;;;2.88;;
41739;SDS011;27422;52.444;13.300;2022-07-23T03:59:55;5.68;;;2.72;;
41739;SDS011;27422;52.444;13.300;2022-07-23T04:02:20;4.45;;;2.45;;
41739;SDS011;27422;52.444;13.300;2022-07-23T04:04:46;4.38;;;2.45;;
41739;SDS011;27422;52.444;13.300;2022-07-23T04:07:11;6.80;;;2.92;;
41739;SDS011;27422;52.444;13.300;2022-07-23T04:09:37;5.05;;;2.30;;
41739;SDS011;27422;52.444;13.300;2022-07-23T04:14:30;6.82;;;2.70;;
41739;SDS011;27422;52.444;13.300;2022-07-23T04:16:56;4.57;;;2.20;;
41739;SDS011;27422;52.444;13.300;2022-07-23T04:19:21;9.02;;;2.78;;
41739;SDS011;27422;52.444;13.300;2022-07-23T04:21:46;3.88;;;2.33;;
41739;SDS011;27422;52.444;13.300;2022-07-23T04:24:12;4.75;;;2.00;;
41739;SDS011;27422;52.444;13.300;2022-07-23T04:26:37;6.30;;;2.15;;
41739;SDS011;27422;52.444;13.300;2022-07-23T04:29:02;14.82;;;2.53;;
41739;SDS011;27422;52.444;13.300;2022-07-23T04:31:28;5.50;;;2.25;;
41739;SDS011;27422;52.444;13.300;2022-07-23T04:33:53;4.82;;;2.15;;
41739;SDS011;27422;52.444;13.300;2022-07-23T04:36:18;5.13;;;2.30;;
41739;SDS011;27422;52.444;13.300;2022-07-23T04:38:44;5.88;;;2.78;;
41739;SDS011;27422;52.444;13.300;2022-07-23T04:41:09;6.10;;;2.55;;
41739;SDS011;27422;52.444;13.300;2022-07-23T04:43:34;8.27;;;3.10;;
41739;SDS011;27422;52.444;13.300;2022-07-23T04:46:00;6.05;;;2.45;;
41739;SDS011;27422;52.444;13.300;2022-07-23T04:48:25;5.65;;;3.20;;
41739;SDS011;27422;52.444;13.300;2022-07-23T04:50:50;7.25;;;2.70;;
41739;SDS011;27422;52.444;13.300;2022-07-23T04:53:16;7.60;;;3.13;;
41739;SDS011;27422;52.444;13.300;2022-07-23T04:55:43;5.95;;;2.78;;
41739;SDS011;27422;52.444;13.300;2022-07-23T04:58:08;7.30;;;3.00;;
41739;SDS011;27422;52.444;13.300;2022-07-23T05:00:34;8.00;;;3.30;;
41739;SDS011;27422;52.444;13.300;2022-07-23T05:02:59;6.72;;;2.67;;
41739;SDS011;27422;52.444;13.300;2022-07-23T05:05:25;8.30;;;3.10;;
41739;SDS011;27422;52.444;13.300;2022-07-23T05:07:50;7.38;;;3.03;;
41739;SDS011;27422;52.444;13.300;2022-07-23T05:10:15;6.53;;;3.17;;
41739;SDS011;27422;52.444;13.300;2022-07-23T05:12:41;6.22;;;3.20;;
41739;SDS011;27422;52.444;13.300;2022-07-23T05:15:06;7.05;;;2.83;;
41739;SDS011;27422;52.444;13.300;2022-07-23T05:17:32;6.70;;;3.10;;
41739;SDS011;27422;52.444;13.300;2022-07-23T05:19:57;7.13;;;2.95;;
41739;SDS011;27422;52.444;13.300;2022-07-23T05:22:22;5.68;;;3.10;;
41739;SDS011;27422;52.444;13.300;2022-07-23T05:24:48;5.95;;;2.90;;
41739;SDS011;27422;52.444;13.300;2022-07-23T05:27:13;6.22;;;3.17;;
41739;SDS011;27422;52.444;13.300;2022-07-23T05:29:38;5.15;;;2.92;;
41739;SDS011;27422;52.444;13.300;2022-07-23T05:32:04;6.50;;;3.00;;
41739;SDS011;27422;52.444;13.300;2022-07-23T05:34:30;5.80;;;2.75;;
41739;SDS011;27422;52.444;13.300;2022-07-23T05:36:55;5.72;;;2.90;;
41739;SDS011;27422;52.444;13.300;2022-07-23T05:39:20;9.52;;;3.05;;
41739;SDS011;27422;52.444;13.300;2022-07-23T05:41:46;5.72;;;3.38;;
41739;SDS011;27422;52.444;13.300;2022-07-23T05:44:11;4.53;;;2.90;;
41739;SDS011;27422;52.444;13.300;2022-07-23T05:46:36;6.78;;;2.92;;
41739;SDS011;27422;52.444;13.300;2022-07-23T05:49:02;5.45;;;2.80;;
41739;SDS011;27422;52.444;13.300;2022-07-23T05:51:27;6.97;;;3.22;;
41739;SDS011;27422;52.444;13.300;2022-07-23T05:53:52;6.38;;;3.05;;
41739;SDS011;27422;52.444;13.300;2022-07-23T05:56:18;4.63;;;2.85;;
41739;SDS011;27422;52.444;13.300;2022-07-23T05:58:44;5.85;;;3.15;;
41739;SDS011;27422;52.444;13.300;2022-07-23T06:01:09;6.45;;;3.47;;
41739;SDS011;27422;52.444;13.300;2022-07-23T06:03:36;8.57;;;3.38;;
41739;SDS011;27422;52.444;13.300;2022-07-23T06:06:02;7.38;;;3.45;;
41739;SDS011;27422;52.444;13.300;2022-07-23T06:08:27;6.45;;;3.40;;
41739;SDS011;27422;52.444;13.300;2022-07-23T06:10:53;6.45;;;3.30;;
41739;SDS011;27422;52.444;13.300;2022-07-23T06:13:18;9.00;;;3.70;;
41739;SDS011;27422;52.444;13.300;2022-07-23T06:15:44;6.38;;;3.65;;
41739;SDS011;27422;52.444;13.300;2022-07-23T06:18:09;5.72;;;3.13;;
41739;SDS011;27422;52.444;13.300;2022-07-23T06:20:34;6.25;;;3.53;;
41739;SDS011;27422;52.444;13.300;2022-07-23T06:23:00;5.43;;;3.22;;
41739;SDS011;27422;52.444;13.300;2022-07-23T06:25:28;7.05;;;3.55;;
41739;SDS011;27422;52.444;13.300;2022-07-23T06:27:53;5.20;;;3.42;;
41739;SDS011;27422;52.444;13.300;2022-07-23T06:30:18;5.25;;;3.08;;
41739;SDS011;27422;52.444;13.300;2022-07-23T06:32:44;7.15;;;3.25;;
41739;SDS011;27422;52.444;13.300;2022-07-23T06:35:10;9.32;;;4.10;;
41739;SDS011;27422;52.444;13.300;2022-07-23T06:37:36;5.72;;;2.80;;
41739;SDS011;27422;52.444;13.300;2022-07-23T06:40:01;6.00;;;3.50;;
41739;SDS011;27422;52.444;13.300;2022-07-23T06:42:27;5.95;;;3.40;;
41739;SDS011;27422;52.444;13.300;2022-07-23T06:44:53;7.68;;;3.13;;
41739;SDS011;27422;52.444;13.300;2022-07-23T06:47:18;7.97;;;3.20;;
41739;SDS011;27422;52.444;13.300;2022-07-23T06:49:46;7.05;;;3.40;;
41739;SDS011;27422;52.444;13.300;2022-07-23T06:52:11;6.85;;;3.53;;
41739;SDS011;27422;52.444;13.300;2022-07-23T06:54:37;6.50;;;3.63;;
41739;SDS011;27422;52.444;13.300;2022-07-23T06:57:02;8.48;;;4.00;;
41739;SDS011;27422;52.444;13.300;2022-07-23T06:59:27;7.50;;;4.15;;
41739;SDS011;27422;52.444;13.300;2022-07-23T07:01:53;7.47;;;3.72;;
41739;SDS011;27422;52.444;13.300;2022-07-23T07:04:18;9.10;;;3.70;;
41739;SDS011;27422;52.444;13.300;2022-07-23T07:06:43;6.38;;;3.47;;
41739;SDS011;27422;52.444;13.300;2022-07-23T07:09:09;11.23;;;3.70;;
41739;SDS011;27422;52.444;13.300;2022-07-23T07:11:34;6.15;;;3.42;;
41739;SDS011;27422;52.444;13.300;2022-07-23T07:13:59;8.70;;;3.67;;
41739;SDS011;27422;52.444;13.300;2022-07-23T07:16:25;8.05;;;3.00;;
41739;SDS011;27422;52.444;13.300;2022-07-23T07:18:50;7.38;;;3.35;;
41739;SDS011;27422;52.444;13.300;2022-07-23T07:21:15;6.95;;;3.65;;
41739;SDS011;27422;52.444;13.300;2022-07-23T07:23:41;6.55;;;3.20;;
41739;SDS011;27422;52.444;13.300;2022-07-23T07:26:06;7.15;;;3.30;;
41739;SDS011;27422;52.444;13.300;2022-07-23T07:28:31;6.38;;;3.47;;
41739;SDS011;27422;52.444;13.300;2022-07-23T07:30:57;8.18;;;3.50;;
41739;SDS011;27422;52.444;13.300;2022-07-23T07:33:22;7.63;;;4.30;;
41739;SDS011;27422;52.444;13.300;2022-07-23T07:35:48;7.63;;;3.80;;
41739;SDS011;27422;52.444;13.300;2022-07-23T07:38:13;7.07;;;3.53;;
41739;SDS011;27422;52.444;13.300;2022-07-23T07:40:38;7.72;;;3.75;;
41739;SDS011;27422;52.444;13.300;2022-07-23T07:43:04;8.10;;;3.92;;
41739;SDS011;27422;52.444;13.300;2022-07-23T07:45:29;6.85;;;3.78;;
41739;SDS011;27422;52.444;13.300;2022-07-23T07:47:54;5.93;;;3.40;;
41739;SDS011;27422;52.444;13.300;2022-07-23T07:50:20;5.68;;;3.85;;
41739;SDS011;27422;52.444;13.300;2022-07-23T07:52:46;7.53;;;3.95;;
41739;SDS011;27422;52.444;13.300;2022-07-23T07:55:11;8.27;;;3.95;;
41739;SDS011;27422;52.444;13.300;2022-07-23T07:57:37;5.22;;;3.53;;
41739;SDS011;27422;52.444;13.300;2022-07-23T08:00:07;7.28;;;3.78;;
41739;SDS011;27422;52.444;13.300;2022-07-23T08:02:47;7.57;;;3.80;;
41739;SDS011;27422;52.444;13.300;2022-07-23T08:05:13;7.00;;;4.03;;
41739;SDS011;27422;52.444;13.300;2022-07-23T08:07:39;7.05;;;3.28;;
41739;SDS011;27422;52.444;13.300;2022-07-23T08:10:08;6.13;;;3.38;;
41739;SDS011;27422;52.444;13.300;2022-07-23T08:12:38;7.07;;;3.85;;
41739;SDS011;27422;52.444;13.300;2022-07-23T08:15:04;5.65;;;3.35;;
41739;SDS011;27422;52.444;13.300;2022-07-23T08:17:30;7.15;;;3.58;;
41739;SDS011;27422;52.444;13.300;2022-07-23T08:19:55;7.90;;;4.03;;
41739;SDS011;27422;52.444;13.300;2022-07-23T08:22:20;6.55;;;4.18;;
41739;SDS011;27422;52.444;13.300;2022-07-23T08:24:46;9.18;;;5.13;;
41739;SDS011;27422;52.444;13.300;2022-07-23T08:27:11;9.68;;;4.47;;
41739;SDS011;27422;52.444;13.300;2022-07-23T08:29:36;8.32;;;4.28;;
41739;SDS011;27422;52.444;13.300;2022-07-23T08:32:04;7.68;;;4.03;;
41739;SDS011;27422;52.444;13.300;2022-07-23T08:34:30;7.32;;;3.78;;
41739;SDS011;27422;52.444;13.300;2022-07-23T08:36:55;8.30;;;4.30;;
41739;SDS011;27422;52.444;13.300;2022-07-23T08:39:21;7.28;;;3.97;;
41739;SDS011;27422;52.444;13.300;2022-07-23T08:41:46;7.00;;;3.85;;
41739;SDS011;27422;52.444;13.300;2022-07-23T08:44:13;7.25;;;3.53;;
41739;SDS011;27422;52.444;13.300;2022-07-23T08:46:39;7.07;;;3.80;;
41739;SDS011;27422;52.444;13.300;2022-07-23T08:49:06;8.88;;;3.65;;
41739;SDS011;27422;52.444;13.300;2022-07-23T08:51:31;5.38;;;2.88;;
41739;SDS011;27422;52.444;13.300;2022-07-23T08:53:57;5.72;;;2.38;;
41739;SDS011;27422;52.444;13.300;2022-07-23T08:56:23;6.32;;;2.95;;
41739;SDS011;27422;52.444;13.300;2022-07-23T08:58:48;6.13;;;2.67;;
41739;SDS011;27422;52.444;13.300;2022-07-23T09:01:14;4.45;;;2.50;;
41739;SDS011;27422;52.444;13.300;2022-07-23T09:03:39;6.78;;;2.45;;
41739;SDS011;27422;52.444;13.300;2022-07-23T09:06:05;4.90;;;2.67;;
41739;SDS011;27422;52.444;13.300;2022-07-23T09:11:07;5.72;;;2.50;;
41739;SDS011;27422;52.444;13.300;2022-07-23T09:16:16;4.25;;;1.80;;
41739;SDS011;27422;52.444;13.300;2022-07-23T09:19:00;3.72;;;1.90;;
41739;SDS011;27422;52.444;13.300;2022-07-23T09:21:29;3.10;;;1.80;;
41739;SDS011;27422;52.444;13.300;2022-07-23T09:23:59;6.65;;;2.03;;
41739;SDS011;27422;52.444;13.300;2022-07-23T09:26:30;5.75;;;2.17;;
41739;SDS011;27422;52.444;13.300;2022-07-23T09:31:31;5.13;;;2.80;;
41739;SDS011;27422;52.444;13.300;2022-07-23T09:34:23;4.03;;;2.22;;
41739;SDS011;27422;52.444;13.300;2022-07-23T09:36:51;5.18;;;2.20;;
41739;SDS011;27422;52.444;13.300;2022-07-23T09:39:31;7.50;;;2.47;;
41739;SDS011;27422;52.444;13.300;2022-07-23T09:41:57;6.22;;;2.30;;
41739;SDS011;27422;52.444;13.300;2022-07-23T09:44:40;7.18;;;2.42;;
41739;SDS011;27422;52.444;13.300;2022-07-23T09:47:07;4.32;;;2.13;;
41739;SDS011;27422;52.444;13.300;2022-07-23T09:49:32;4.97;;;2.20;;
41739;SDS011;27422;52.444;13.300;2022-07-23T09:51:58;4.63;;;2.05;;
41739;SDS011;27422;52.444;13.300;2022-07-23T09:54:29;4.13;;;1.98;;
41739;SDS011;27422;52.444;13.300;2022-07-23T09:57:11;5.57;;;2.00;;
41739;SDS011;27422;52.444;13.300;2022-07-23T09:59:40;3.63;;;1.80;;
41739;SDS011;27422;52.444;13.300;2022-07-23T10:02:07;4.15;;;1.80;;
41739;SDS011;27422;52.444;13.300;2022-07-23T10:04:35;4.03;;;1.67;;
41739;SDS011;27422;52.444;13.300;2022-07-23T10:07:01;5.57;;;2.00;;
41739;SDS011;27422;52.444;13.300;2022-07-23T10:09:31;5.60;;;1.80;;
41739;SDS011;27422;52.444;13.300;2022-07-23T10:11:59;4.07;;;1.55;;
41739;SDS011;27422;52.444;13.300;2022-07-23T10:17:10;4.38;;;1.52;;
41739;SDS011;27422;52.444;13.300;2022-07-23T10:19:36;3.28;;;1.50;;
41739;SDS011;27422;52.444;13.300;2022-07-23T10:30:30;4.45;;;1.60;;
41739;SDS011;27422;52.444;13.300;2022-07-23T10:33:20;3.72;;;1.60;;
41739;SDS011;27422;52.444;13.300;2022-07-23T10:35:56;5.13;;;1.80;;
41739;SDS011;27422;52.444;13.300;2022-07-23T10:41:39;4.63;;;1.77;;
41739;SDS011;27422;52.444;13.300;2022-07-23T10:44:09;4.68;;;1.50;;
41739;SDS011;27422;52.444;13.300;2022-07-23T10:49:38;4.70;;;1.50;;
41739;SDS011;27422;52.444;13.300;2022-07-23T10:54:39;4.03;;;1.83;;
41739;SDS011;27422;52.444;13.300;2022-07-23T10:57:12;3.88;;;1.40;;
41739;SDS011;27422;52.444;13.300;2022-07-23T11:02:41;5.05;;;1.63;;
41739;SDS011;27422;52.444;13.300;2022-07-23T11:05:09;3.33;;;1.42;;
41739;SDS011;27422;52.444;13.300;2022-07-23T11:07:36;4.13;;;1.80;;
41739;SDS011;27422;52.444;13.300;2022-07-23T11:10:03;4.60;;;1.63;;
41739;SDS011;27422;52.444;13.300;2022-07-23T11:17:26;4.05;;;1.50;;
41739;SDS011;27422;52.444;13.300;2022-07-23T11:22:46;6.05;;;1.50;;
41739;SDS011;27422;52.444;13.300;2022-07-23T11:25:14;3.33;;;1.30;;
41739;SDS011;27422;52.444;13.300;2022-07-23T11:28:15;3.97;;;1.60;;
41739;SDS011;27422;52.444;13.300;2022-07-23T11:30:43;5.25;;;1.60;;
41739;SDS011;27422;52.444;13.300;2022-07-23T11:35:38;3.88;;;1.65;;
41739;SDS011;27422;52.444;13.300;2022-07-23T11:40:55;4.25;;;1.65;;
41739;SDS011;27422;52.444;13.300;2022-07-23T11:43:23;5.13;;;1.70;;
41739;SDS011;27422;52.444;13.300;2022-07-23T11:45:49;3.75;;;1.70;;
41739;SDS011;27422;52.444;13.300;2022-07-23T11:48:20;4.90;;;1.70;;
41739;SDS011;27422;52.444;13.300;2022-07-23T11:50:47;3.50;;;1.40;;
41739;SDS011;27422;52.444;13.300;2022-07-23T11:53:15;4.63;;;1.80;;
41739;SDS011;27422;52.444;13.300;2022-07-23T11:55:49;3.83;;;1.60;;
41739;SDS011;27422;52.444;13.300;2022-07-23T11:58:15;4.03;;;1.40;;
41739;SDS011;27422;52.444;13.300;2022-07-23T12:00:40;3.70;;;1.65;;
41739;SDS011;27422;52.444;13.300;2022-07-23T12:03:06;4.65;;;1.83;;
41739;SDS011;27422;52.444;13.300;2022-07-23T12:05:33;4.57;;;1.77;;
41739;SDS011;27422;52.444;13.300;2022-07-23T12:08:00;4.47;;;1.70;;
41739;SDS011;27422;52.444;13.300;2022-07-23T12:10:27;4.30;;;1.60;;
41739;SDS011;27422;52.444;13.300;2022-07-23T12:12:58;3.75;;;1.60;;
41739;SDS011;27422;52.444;13.300;2022-07-23T12:15:35;4.03;;;1.75;;
41739;SDS011;27422;52.444;13.300;2022-07-23T12:18:06;4.20;;;1.88;;
41739;SDS011;27422;52.444;13.300;2022-07-23T12:20:36;3.92;;;1.70;;
41739;SDS011;27422;52.444;13.300;2022-07-23T12:23:06;3.97;;;1.98;;
41739;SDS011;27422;52.444;13.300;2022-07-23T12:25:34;3.83;;;2.20;;
41739;SDS011;27422;52.444;13.300;2022-07-23T12:30:58;3.92;;;1.77;;
41739;SDS011;27422;52.444;13.300;2022-07-23T12:33:26;4.13;;;2.00;;
41739;SDS011;27422;52.444;13.300;2022-07-23T12:35:58;4.90;;;2.30;;
41739;SDS011;27422;52.444;13.300;2022-07-23T12:38:26;5.20;;;2.10;;
41739;SDS011;27422;52.444;13.300;2022-07-23T12:40:53;3.97;;;1.98;;
41739;SDS011;27422;52.444;13.300;2022-07-23T12:43:26;4.97;;;2.03;;
41739;SDS011;27422;52.444;13.300;2022-07-23T12:45:54;3.95;;;2.13;;
41739;SDS011;27422;52.444;13.300;2022-07-23T12:48:28;3.45;;;1.90;;
41739;SDS011;27422;52.444;13.300;2022-07-23T12:53:24;3.50;;;1.90;;
41739;SDS011;27422;52.444;13.300;2022-07-23T12:56:11;4.30;;;1.90;;
41739;SDS011;27422;52.444;13.300;2022-07-23T13:01:32;5.13;;;2.42;;
41739;SDS011;27422;52.444;13.300;2022-07-23T13:06:28;5.03;;;2.22;;
41739;SDS011;27422;52.444;13.300;2022-07-23T13:08:54;3.72;;;2.03;;
41739;SDS011;27422;52.444;13.300;2022-07-23T13:11:19;3.33;;;1.83;;
41739;SDS011;27422;52.444;13.300;2022-07-23T13:13:45;3.53;;;1.92;;
41739;SDS011;27422;52.444;13.300;2022-07-23T13:16:10;5.80;;;2.22;;
41739;SDS011;27422;52.444;13.300;2022-07-23T13:18:35;3.88;;;1.80;;
41739;SDS011;27422;52.444;13.300;2022-07-23T13:21:01;3.55;;;1.73;;
41739;SDS011;27422;52.444;13.300;2022-07-23T13:23:27;3.95;;;2.17;;
41739;SDS011;27422;52.444;13.300;2022-07-23T13:25:52;6.13;;;2.30;;
41739;SDS011;27422;52.444;13.300;2022-07-23T13:28:18;4.65;;;1.77;;
41739;SDS011;27422;52.444;13.300;2022-07-23T13:30:45;3.30;;;1.77;;
41739;SDS011;27422;52.444;13.300;2022-07-23T13:33:11;3.97;;;1.90;;
41739;SDS011;27422;52.444;13.300;2022-07-23T13:35:36;3.53;;;1.83;;
41739;SDS011;27422;52.444;13.300;2022-07-23T13:38:05;3.70;;;1.60;;
41739;SDS011;27422;52.444;13.300;2022-07-23T13:40:38;5.45;;;2.00;;
41739;SDS011;27422;52.444;13.300;2022-07-23T13:43:05;3.03;;;1.60;;
41739;SDS011;27422;52.444;13.300;2022-07-23T13:45:32;3.10;;;1.70;;
41739;SDS011;27422;52.444;13.300;2022-07-23T13:47:58;4.47;;;1.85;;
41739;SDS011;27422;52.444;13.300;2022-07-23T13:50:23;4.15;;;1.48;;
41739;SDS011;27422;52.444;13.300;2022-07-23T13:52:48;3.67;;;1.50;;
41739;SDS011;27422;52.444;13.300;2022-07-23T13:55:14;3.30;;;1.52;;
41739;SDS011;27422;52.444;13.300;2022-07-23T13:57:39;3.60;;;1.65;;
41739;SDS011;27422;52.444;13.300;2022-07-23T14:00:05;3.85;;;1.83;;
41739;SDS011;27422;52.444;13.300;2022-07-23T14:02:32;3.78;;;1.40;;
41739;SDS011;27422;52.444;13.300;2022-07-23T14:04:58;3.83;;;1.38;;
41739;SDS011;27422;52.444;13.300;2022-07-23T14:07:23;4.80;;;1.80;;
41739;SDS011;27422;52.444;13.300;2022-07-23T14:09:49;2.90;;;1.25;;
41739;SDS011;27422;52.444;13.300;2022-07-23T14:12:14;2.97;;;1.77;;
41739;SDS011;27422;52.444;13.300;2022-07-23T14:14:40;4.75;;;1.60;;
41739;SDS011;27422;52.444;13.300;2022-07-23T14:17:05;4.40;;;1.77;;
41739;SDS011;27422;52.444;13.300;2022-07-23T14:19:31;2.95;;;1.45;;
41739;SDS011;27422;52.444;13.300;2022-07-23T14:21:56;3.63;;;1.60;;
41739;SDS011;27422;52.444;13.300;2022-07-23T14:24:22;4.68;;;1.40;;
41739;SDS011;27422;52.444;13.300;2022-07-23T14:26:48;4.93;;;1.42;;
41739;SDS011;27422;52.444;13.300;2022-07-23T14:29:13;4.05;;;1.58;;
41739;SDS011;27422;52.444;13.300;2022-07-23T14:31:38;4.50;;;1.40;;
41739;SDS011;27422;52.444;13.300;2022-07-23T14:34:04;3.20;;;1.10;;
41739;SDS011;27422;52.444;13.300;2022-07-23T14:36:29;2.30;;;0.98;;
41739;SDS011;27422;52.444;13.300;2022-07-23T14:38:54;3.58;;;1.20;;
41739;SDS011;27422;52.444;13.300;2022-07-23T14:41:20;3.28;;;1.23;;
41739;SDS011;27422;52.444;13.300;2022-07-23T14:43:45;3.53;;;1.20;;
41739;SDS011;27422;52.444;13.300;2022-07-23T14:46:11;3.45;;;1.20;;
41739;SDS011;27422;52.444;13.300;2022-07-23T14:48:40;2.17;;;1.10;;
41739;SDS011;27422;52.444;13.300;2022-07-23T14:51:05;3.80;;;1.40;;
41739;SDS011;27422;52.444;13.300;2022-07-23T14:53:31;3.42;;;1.30;;
41739;SDS011;27422;52.444;13.300;2022-07-23T14:55:56;2.50;;;1.10;;
41739;SDS011;27422;52.444;13.300;2022-07-23T14:58:22;3.83;;;1.20;;
41739;SDS011;27422;52.444;13.300;2022-07-23T15:00:48;2.73;;;1.00;;
41739;SDS011;27422;52.444;13.300;2022-07-23T15:03:14;3.08;;;1.15;;
41739;SDS011;27422;52.444;13.300;2022-07-23T15:05:39;1.73;;;0.80;;
41739;SDS011;27422;52.444;13.300;2022-07-23T15:08:05;2.53;;;1.05;;
41739;SDS011;27422;52.444;13.300;2022-07-23T15:10:30;2.35;;;0.93;;
41739;SDS011;27422;52.444;13.300;2022-07-23T15:12:55;2.58;;;1.00;;
41739;SDS011;27422;52.444;13.300;2022-07-23T15:15:21;4.05;;;1.38;;
41739;SDS011;27422;52.444;13.300;2022-07-23T15:17:46;3.28;;;1.05;;
41739;SDS011;27422;52.444;13.300;2022-07-23T15:20:12;2.88;;;1.15;;
41739;SDS011;27422;52.444;13.300;2022-07-23T15:22:37;1.70;;;0.80;;
41739;SDS011;27422;52.444;13.300;2022-07-23T15:25:03;3.45;;;1.02;;
41739;SDS011;27422;52.444;13.300;2022-07-23T15:27:31;2.97;;;1.05;;
41739;SDS011;27422;52.444;13.300;2022-07-23T15:29:56;2.58;;;1.20;;